Time;durP1;ratioP1;P1;durP2;ratioP2;P2;SDS_P1;SDS_P2;PMS_P1;PMS_P2;Temp;Humidity;BMP_temperature;BMP_pressure;BME280_temperature;BME280_humidity;BME280_pressure;Samples;Min_cycle;Max_cycle;Signal;HPM_P1;HPM_P2
2022/05/07 00:00:58;;;;;;;10.57;4.80;;;;;;;10.47;84.88;101184.06;4993373;28;20088;-78
2022/05/07 00:03:24;;;;;;;12.48;5.88;;;;;;;10.52;85.50;101162.81;4993369;28;20034;-79
2022/05/07 00:05:49;;;;;;;10.65;5.55;;;;;;;10.68;85.99;101203.16;4993505;28;20046;-78
2022/05/07 00:08:15;;;;;;;13.68;7.20;;;;;;;10.67;87.04;101197.94;4975058;28;20030;-79
2022/05/07 00:10:42;;;;;;;16.25;8.05;;;;;;;10.63;87.02;101180.50;4994261;28;20030;-78
2022/05/07 00:13:08;;;;;;;15.77;7.60;;;;;;;10.63;87.15;101199.47;4993908;28;20058;-77
2022/05/07 00:15:33;;;;;;;13.75;6.78;;;;;;;10.37;87.48;101169.81;4960677;28;20066;-78
2022/05/07 00:18:02;;;;;;;14.10;7.57;;;;;;;10.22;87.16;101169.00;4993931;28;20034;-77
2022/05/07 00:20:28;;;;;;;11.60;6.78;;;;;;;10.37;85.78;101180.13;4993710;28;20085;-78
2022/05/07 00:22:54;;;;;;;10.70;6.30;;;;;;;10.31;84.99;101174.63;4993756;28;20030;-78
2022/05/07 00:25:20;;;;;;;12.57;6.57;;;;;;;10.43;84.28;101184.69;4993901;28;20034;-79
2022/05/07 00:27:46;;;;;;;12.25;5.97;;;;;;;10.57;84.20;101182.81;4993870;28;20023;-77
2022/05/07 00:30:12;;;;;;;12.65;6.32;;;;;;;10.67;82.92;101174.69;4993771;28;20066;-78
2022/05/07 00:32:37;;;;;;;12.60;5.63;;;;;;;10.63;82.88;101183.06;4993692;28;20034;-78
2022/05/07 00:35:03;;;;;;;9.52;5.50;;;;;;;10.42;83.07;101178.66;4976282;28;20122;-78
2022/05/07 00:37:28;;;;;;;9.13;6.13;;;;;;;10.38;84.94;101181.91;4993416;28;20034;-78
2022/05/07 00:39:54;;;;;;;12.73;6.88;;;;;;;10.35;84.75;101161.06;4958971;28;20049;-78
2022/05/07 00:42:22;;;;;;;15.05;6.00;;;;;;;10.16;85.83;101139.50;4993020;28;20452;-78
2022/05/07 00:44:47;;;;;;;12.40;6.95;;;;;;;10.19;86.34;101169.75;4993213;28;20552;-77
2022/05/07 00:47:24;;;;;;;14.30;8.00;;;;;;;9.87;88.13;101156.13;4992631;28;20041;-77
2022/05/07 00:49:53;;;;;;;16.08;7.60;;;;;;;9.97;88.87;101173.84;4993628;28;20412;-77
2022/05/07 00:52:19;;;;;;;13.95;7.30;;;;;;;9.96;89.56;101178.94;4991703;28;20124;-78
2022/05/07 00:54:46;;;;;;;14.75;7.18;;;;;;;9.99;89.40;101163.59;4993012;28;20470;-78
2022/05/07 00:57:13;;;;;;;18.83;8.70;;;;;;;10.11;88.93;101146.16;4992761;28;20121;-78
2022/05/07 00:59:39;;;;;;;19.23;7.90;;;;;;;10.32;88.79;101145.44;4992342;28;20057;-78
2022/05/07 01:02:05;;;;;;;13.70;7.55;;;;;;;10.39;86.84;101121.72;4992656;28;20034;-78
2022/05/07 01:04:31;;;;;;;16.17;7.68;;;;;;;10.69;86.47;101173.03;4992274;28;20072;-78
2022/05/07 01:06:57;;;;;;;13.98;7.93;;;;;;;10.65;85.74;101174.63;4991898;28;20449;-78
2022/05/07 01:09:23;;;;;;;15.73;7.80;;;;;;;10.54;85.62;101156.84;4993389;28;20030;-77
2022/05/07 01:11:50;;;;;;;15.55;7.85;;;;;;;10.47;86.33;101159.13;4975677;28;20057;-78
2022/05/07 01:14:16;;;;;;;14.23;8.13;;;;;;;10.38;86.61;101144.88;4992353;28;20088;-77
2022/05/07 01:16:41;;;;;;;19.27;8.32;;;;;;;10.33;86.61;101140.34;4992341;28;20038;-76
2022/05/07 01:19:07;;;;;;;16.25;8.88;;;;;;;10.25;87.72;101161.44;4992323;28;20504;-78
2022/05/07 01:21:32;;;;;;;14.07;9.00;;;;;;;10.10;88.22;101141.78;4991966;28;20472;-77
2022/05/07 01:23:59;;;;;;;17.30;10.15;;;;;;;10.16;88.61;101164.44;4992063;28;20026;-78
2022/05/07 01:26:25;;;;;;;16.08;9.70;;;;;;;9.74;89.39;101138.25;4991949;28;20023;-78
2022/05/07 01:28:57;;;;;;;18.63;10.43;;;;;;;9.84;89.84;101156.88;4992005;28;20088;-79
2022/05/07 01:31:26;;;;;;;16.27;9.57;;;;;;;9.63;90.86;101155.75;4991931;28;20072;-78
2022/05/07 01:33:52;;;;;;;15.85;10.60;;;;;;;9.50;91.92;101146.50;4989225;28;20030;-79
2022/05/07 01:36:19;;;;;;;13.98;9.63;;;;;;;9.49;92.43;101153.31;4992205;28;20060;-78
2022/05/07 01:38:46;;;;;;;14.23;8.50;;;;;;;9.39;92.75;101149.41;4991503;28;20026;-78
2022/05/07 01:41:11;;;;;;;16.10;9.50;;;;;;;8.91;93.59;101089.31;4993018;28;20030;-78
2022/05/07 01:43:38;;;;;;;14.63;9.52;;;;;;;9.01;94.07;101121.56;4992040;28;20037;-77
2022/05/07 01:48:09;;;;;;;15.40;9.70;;;;;;;9.05;94.07;101134.72;4974639;28;20404;-77
2022/05/07 01:48:49;;;;;;;15.45;9.20;;;;;;;8.94;94.22;101111.78;4987678;28;20038;-78
2022/05/07 01:51:15;;;;;;;13.38;8.52;;;;;;;9.14;95.14;101139.47;4991406;28;20088;-78
2022/05/07 01:53:40;;;;;;;14.70;9.43;;;;;;;9.17;94.58;101126.75;4974554;28;20032;-78
2022/05/07 01:56:06;;;;;;;14.38;9.07;;;;;;;9.35;94.59;101146.56;4991302;28;20119;-77
2022/05/07 01:58:31;;;;;;;13.02;9.30;;;;;;;9.06;93.83;101076.38;4991799;28;20136;-78
2022/05/07 02:00:57;;;;;;;13.25;9.00;;;;;;;9.46;94.05;101142.88;4990923;28;20046;-78
2022/05/07 02:03:23;;;;;;;14.55;8.70;;;;;;;9.27;94.02;101110.09;4991582;28;20030;-76
2022/05/07 02:05:48;;;;;;;13.88;8.52;;;;;;;9.51;94.28;101151.72;4990869;28;20386;-79
2022/05/07 02:08:14;;;;;;;14.82;9.05;;;;;;;9.26;94.27;101108.31;4991603;28;20092;-79
2022/05/07 02:10:40;;;;;;;15.13;9.15;;;;;;;9.50;94.08;101154.22;4991511;28;20026;-77
2022/05/07 02:13:05;;;;;;;13.57;9.40;;;;;;;9.28;94.67;101134.16;4991101;28;20488;-77
2022/05/07 02:15:31;;;;;;;17.55;9.00;;;;;;;9.41;94.48;101157.22;4990579;28;20034;-78
2022/05/07 02:17:56;;;;;;;14.50;10.00;;;;;;;9.53;93.92;101149.22;4991716;28;20034;-78
2022/05/07 02:20:22;;;;;;;14.90;8.70;;;;;;;9.63;92.97;101142.84;4991399;28;20464;-79
2022/05/07 02:22:51;;;;;;;14.25;9.57;;;;;;;9.43;92.54;101111.75;4991248;28;20057;-78
2022/05/07 02:25:17;;;;;;;12.30;9.43;;;;;;;9.60;93.37;101140.13;4990676;28;20084;-78
2022/05/07 02:27:42;;;;;;;17.20;10.27;;;;;;;9.61;93.94;101136.72;4989615;28;20112;-77
2022/05/07 02:30:09;;;;;;;12.35;9.55;;;;;;;9.68;93.06;101141.38;4990534;28;20113;-78
2022/05/07 02:32:34;;;;;;;12.75;9.32;;;;;;;9.48;93.74;101128.38;4990093;28;20038;-81
2022/05/07 02:35:00;;;;;;;14.88;9.48;;;;;;;8.41;95.11;101008.50;4990210;28;20034;-77
2022/05/07 02:37:25;;;;;;;15.07;9.93;;;;;;;9.18;95.41;101119.91;4991740;28;20041;-78
2022/05/07 02:39:51;;;;;;;14.73;9.32;;;;;;;9.24;95.37;101127.97;4991174;28;20032;-77
2022/05/07 02:45:01;;;;;;;13.20;8.30;;;;;;;9.06;95.14;101115.00;4991523;28;20045;-77
2022/05/07 02:47:28;;;;;;;20.33;9.40;;;;;;;8.99;94.85;101120.63;4991725;28;20060;-75
2022/05/07 02:49:54;;;;;;;12.50;8.95;;;;;;;9.03;94.47;101118.31;4991576;28;20026;-77
2022/05/07 02:52:19;;;;;;;15.05;9.65;;;;;;;8.64;94.27;101078.41;4990501;28;20045;-78
2022/05/07 02:54:45;;;;;;;13.65;9.40;;;;;;;8.86;94.01;101132.84;4990436;28;20034;-78
2022/05/07 02:57:10;;;;;;;15.98;9.77;;;;;;;8.53;95.32;101121.56;4990714;28;20026;-77
2022/05/07 02:59:38;;;;;;;16.45;9.40;;;;;;;8.24;96.48;101121.66;4990827;28;20030;-77
2022/05/07 03:02:04;;;;;;;13.60;9.23;;;;;;;7.89;97.77;101105.09;4990514;28;20030;-75
2022/05/07 03:04:29;;;;;;;14.40;9.48;;;;;;;8.09;98.46;101143.94;4990467;28;20046;-78
2022/05/07 03:06:55;;;;;;;13.18;8.93;;;;;;;8.09;97.86;101149.97;4989726;28;20040;-77
2022/05/07 03:09:20;;;;;;;17.17;9.00;;;;;;;7.83;97.05;101109.88;4972891;28;20582;-77
2022/05/07 03:11:46;;;;;;;14.40;9.52;;;;;;;7.59;96.88;101079.38;4990641;28;20044;-78
2022/05/07 03:14:12;;;;;;;16.65;9.45;;;;;;;8.08;97.07;101160.16;4957221;28;20030;-77
2022/05/07 03:16:40;;;;;;;13.93;9.18;;;;;;;7.31;97.17;101022.03;4990888;28;20030;-78
2022/05/07 03:19:07;;;;;;;12.75;9.70;;;;;;;7.91;96.64;101116.38;4991077;28;20113;-77
2022/05/07 03:21:33;;;;;;;15.80;10.02;;;;;;;7.91;96.86;101106.09;4990877;28;20065;-77
2022/05/07 03:23:59;;;;;;;17.48;9.88;;;;;;;8.05;97.03;101127.44;4991067;28;20465;-77
2022/05/07 03:26:24;;;;;;;14.85;9.98;;;;;;;8.24;96.13;101128.50;4990312;28;20076;-75
2022/05/07 03:28:50;;;;;;;14.32;10.40;;;;;;;8.53;95.28;101137.88;4991052;28;20481;-77
2022/05/07 03:31:18;;;;;;;14.45;10.02;;;;;;;8.55;94.16;101130.28;4991078;28;20069;-75
2022/05/07 03:33:44;;;;;;;18.02;9.27;;;;;;;8.53;94.13;101137.88;4972002;28;20108;-75
2022/05/07 03:36:09;;;;;;;15.05;9.93;;;;;;;8.46;95.09;101140.94;4990642;28;20038;-75
2022/05/07 03:38:35;;;;;;;15.25;10.00;;;;;;;8.13;95.91;101091.00;4990754;28;20030;-77
2022/05/07 03:41:01;;;;;;;15.10;10.30;;;;;;;8.44;96.88;101147.63;4990416;28;20038;-77
2022/05/07 03:43:26;;;;;;;13.93;10.57;;;;;;;8.53;97.21;101144.72;4991007;28;20026;-76
2022/05/07 03:45:52;;;;;;;15.73;10.30;;;;;;;8.44;97.48;101127.06;4991052;28;20041;-75
2022/05/07 03:48:17;;;;;;;12.65;9.52;;;;;;;8.11;97.49;101060.03;4991108;28;20038;-76
2022/05/07 03:50:43;;;;;;;15.20;10.25;;;;;;;8.57;98.02;101141.50;4973420;28;20084;-75
2022/05/07 03:55:52;;;;;;;15.88;10.60;;;;;;;8.54;99.09;101120.78;4990629;28;20515;-76
2022/05/07 03:58:18;;;;;;;16.45;11.45;;;;;;;8.41;100.00;101121.72;4990762;28;20039;-76
2022/05/07 04:00:44;;;;;;;19.88;11.00;;;;;;;8.20;100.00;101114.56;4990729;28;20046;-75
2022/05/07 04:03:13;;;;;;;18.60;10.80;;;;;;;8.23;100.00;101148.19;4990624;28;20057;-76
2022/05/07 04:05:39;;;;;;;14.30;10.83;;;;;;;8.09;100.00;101125.94;4990123;28;20030;-74
2022/05/07 04:08:06;;;;;;;13.93;10.27;;;;;;;8.36;100.00;101154.03;4990029;28;20038;-75
2022/05/07 04:10:32;;;;;;;14.43;10.23;;;;;;;8.37;98.96;101150.66;4973320;28;20448;-73
2022/05/07 04:12:57;;;;;;;15.60;9.88;;;;;;;8.30;98.72;101151.09;4990683;28;20077;-75
2022/05/07 04:15:23;;;;;;;17.55;11.23;;;;;;;8.34;98.81;101165.94;4955427;28;20085;-75
2022/05/07 04:17:49;;;;;;;12.55;9.90;;;;;;;8.38;98.13;101158.44;4990213;28;20496;-75
2022/05/07 04:20:16;;;;;;;16.73;10.13;;;;;;;8.38;98.08;101137.00;4990640;28;20072;-76
2022/05/07 04:22:42;;;;;;;17.13;10.27;;;;;;;8.29;98.03;101123.59;4993300;28;20049;-76
2022/05/07 04:25:10;;;;;;;19.23;11.05;;;;;;;8.58;99.01;101179.31;4993818;28;20108;-76
2022/05/07 04:27:35;;;;;;;15.15;11.00;;;;;;;8.61;99.29;101169.22;4993967;28;20038;-76
2022/05/07 04:30:01;;;;;;;17.83;10.55;;;;;;;8.41;99.45;101138.06;4993704;28;20038;-76
2022/05/07 04:32:27;;;;;;;18.63;10.13;;;;;;;8.60;100.00;101175.16;4994124;28;20045;-77
2022/05/07 04:34:55;;;;;;;19.70;11.13;;;;;;;8.66;99.79;101172.03;4992667;28;20117;-76
2022/05/07 04:37:21;;;;;;;16.67;10.93;;;;;;;8.66;100.00;101169.44;4975227;28;20031;-77
2022/05/07 04:39:47;;;;;;;15.57;11.25;;;;;;;8.70;100.00;101163.69;4957181;28;20129;-76
2022/05/07 04:42:13;;;;;;;15.63;12.05;;;;;;;8.90;100.00;101181.13;4992808;28;20034;-77
2022/05/07 04:44:39;;;;;;;15.93;10.70;;;;;;;8.95;100.00;101185.63;4983696;28;20037;-76
2022/05/07 04:47:05;;;;;;;16.90;12.05;;;;;;;8.89;100.00;101174.19;4974414;28;20035;-75
2022/05/07 04:49:31;;;;;;;21.23;12.57;;;;;;;8.69;100.00;101164.50;4974230;28;20027;-77
2022/05/07 04:51:58;;;;;;;24.90;12.98;;;;;;;8.98;100.00;101194.41;4973702;28;20501;-75
2022/05/07 04:54:24;;;;;;;15.88;11.48;;;;;;;8.90;100.00;101186.25;4973719;28;20464;-77
2022/05/07 04:56:53;;;;;;;16.25;11.65;;;;;;;8.75;100.00;101144.25;4973072;28;20109;-76
2022/05/07 04:59:20;;;;;;;16.33;11.25;;;;;;;8.88;100.00;101154.41;4988343;28;20496;-88
2022/05/07 05:01:46;;;;;;;15.85;11.48;;;;;;;8.89;100.00;101170.75;4980428;28;20041;-78
2022/05/07 05:04:12;;;;;;;19.50;11.45;;;;;;;8.77;100.00;101165.78;4991346;28;20038;-76
2022/05/07 05:06:38;;;;;;;16.95;12.25;;;;;;;9.14;100.00;101203.00;4992211;28;20447;-76
2022/05/07 05:09:06;;;;;;;17.02;11.90;;;;;;;9.20;100.00;101201.63;4958403;28;20050;-79
2022/05/07 05:11:33;;;;;;;20.17;12.50;;;;;;;9.17;100.00;101191.16;4993014;28;20093;-77
2022/05/07 05:13:59;;;;;;;19.50;12.57;;;;;;;9.42;100.00;101214.78;4993147;28;20035;-80
2022/05/07 05:16:24;;;;;;;17.95;12.57;;;;;;;9.52;100.00;101215.38;4993087;28;20030;-82
2022/05/07 05:18:50;;;;;;;20.73;13.15;;;;;;;9.58;100.00;101180.41;4987486;28;20097;-81
2022/05/07 05:21:16;;;;;;;16.80;12.55;;;;;;;9.81;100.00;101190.22;4974901;28;20135;-81
2022/05/07 05:23:42;;;;;;;21.00;13.55;;;;;;;10.19;100.00;101216.19;4972407;28;20050;-83
2022/05/07 05:26:08;;;;;;;15.82;11.95;;;;;;;10.39;100.00;101201.72;4982278;28;20481;-81
2022/05/07 05:28:37;;;;;;;18.23;12.77;;;;;;;10.36;100.00;101183.53;4978982;28;20077;-80
2022/05/07 05:31:03;;;;;;;16.95;12.15;;;;;;;10.48;100.00;101209.94;4954627;28;20114;-85
2022/05/07 05:33:28;;;;;;;18.77;13.10;;;;;;;10.16;100.00;101161.88;4973083;28;20185;-84
2022/05/07 05:35:54;;;;;;;17.75;12.52;;;;;;;10.30;100.00;101184.06;4974842;28;20042;-83
2022/05/07 05:38:19;;;;;;;17.30;11.90;;;;;;;10.40;100.00;101184.56;4971990;28;20050;-79
2022/05/07 05:40:45;;;;;;;14.80;11.50;;;;;;;10.47;100.00;101182.34;4972133;28;20046;-85
2022/05/07 05:44:10;;;;;;;14.27;11.63;;;;;;;10.03;100.00;101104.50;4972693;28;20051;-92
2022/05/07 05:46:56;;;;;;;17.40;10.70;;;;;;;10.46;100.00;101159.91;4950188;29;20077;-86
2022/05/07 05:50:06;;;;;;;15.10;10.98;;;;;;;9.97;100.00;101062.00;4951064;29;20123;-88
2022/05/07 05:52:32;;;;;;;14.55;10.70;;;;;;;10.35;100.00;101093.97;4893659;29;20115;-86
2022/05/07 05:55:00;;;;;;;13.85;9.73;;;;;;;10.94;99.38;101172.53;4893690;29;20521;-84
2022/05/07 05:57:26;;;;;;;15.00;9.13;;;;;;;10.92;100.00;101155.19;4893805;29;20432;-85
2022/05/07 05:59:52;;;;;;;12.90;8.65;;;;;;;10.77;99.27;101096.81;4893633;29;20119;-79
2022/05/07 06:02:18;;;;;;;15.82;9.77;;;;;;;11.65;98.38;101231.72;4892380;29;20050;-84
2022/05/07 06:04:44;;;;;;;15.88;9.40;;;;;;;11.58;99.50;101196.06;4892620;29;20092;-83
2022/05/07 06:07:10;;;;;;;12.20;8.60;;;;;;;11.07;95.66;101105.91;4893035;29;20052;-81
2022/05/07 06:09:35;;;;;;;16.08;8.95;;;;;;;11.18;95.77;101122.78;4892570;29;20559;-80
2022/05/07 06:12:01;;;;;;;12.98;9.43;;;;;;;11.17;97.26;101102.91;4892258;29;20056;-81
2022/05/07 06:14:26;;;;;;;13.77;8.85;;;;;;;12.11;97.92;101225.13;4892797;29;20044;-79
2022/05/07 06:16:52;;;;;;;21.45;8.25;;;;;;;12.12;95.41;101212.28;4891898;29;20071;-78
2022/05/07 06:19:17;;;;;;;13.18;8.52;;;;;;;12.21;94.14;101205.69;4891297;29;20105;-80
2022/05/07 06:21:43;;;;;;;12.32;8.90;;;;;;;12.38;95.21;101232.31;4892275;29;20516;-79
2022/05/07 06:29:36;;;;;;;13.75;7.80;;;;;;;12.83;90.87;101214.25;4955347;28;20045;-79
2022/05/07 06:32:02;;;;;;;15.45;8.63;;;;;;;12.76;92.12;101197.59;4971156;28;20531;-77
2022/05/07 06:34:28;;;;;;;18.02;8.93;;;;;;;13.06;90.88;101222.94;4955452;28;20121;-86
2022/05/07 06:36:54;;;;;;;11.43;8.27;;;;;;;13.03;91.91;101176.16;4970710;28;20093;-81
2022/05/07 06:39:21;;;;;;;14.02;9.00;;;;;;;13.34;90.63;101228.31;4971349;28;20035;-82
2022/05/07 06:41:48;;;;;;;14.18;7.75;;;;;;;13.27;90.13;101215.13;4969877;28;20027;-80
2022/05/07 06:44:14;;;;;;;12.38;8.07;;;;;;;13.47;89.77;101229.69;4970223;28;20045;-80
2022/05/07 06:46:39;;;;;;;14.23;7.85;;;;;;;13.51;89.81;101214.28;4971625;28;20027;-78
2022/05/07 06:49:05;;;;;;;11.68;7.35;;;;;;;13.29;90.11;101172.81;4971498;28;20038;-85
2022/05/07 06:51:32;;;;;;;11.65;7.18;;;;;;;13.78;90.92;101236.00;4971721;28;20027;-86
2022/05/07 06:53:57;;;;;;;10.68;7.65;;;;;;;13.47;89.19;101183.00;4971720;28;20089;-83
2022/05/07 06:56:23;;;;;;;11.70;7.13;;;;;;;13.41;90.23;101174.16;4971454;28;20031;-81
2022/05/07 06:58:49;;;;;;;10.27;7.20;;;;;;;13.94;88.05;101211.47;4971390;28;20030;-82
2022/05/07 07:01:15;;;;;;;11.13;6.38;;;;;;;14.20;86.02;101236.63;4971313;28;20489;-82
2022/05/07 07:03:40;;;;;;;21.52;7.25;;;;;;;14.47;84.29;101228.00;4971306;28;20042;-80
2022/05/07 07:06:06;;;;;;;21.23;7.53;;;;;;;14.61;83.86;101230.19;4971291;28;20034;-82
2022/05/07 07:08:32;;;;;;;12.20;6.00;;;;;;;14.57;80.68;101211.00;4971305;28;20496;-82
2022/05/07 07:10:58;;;;;;;10.50;5.15;;;;;;;14.73;79.48;101225.41;4985999;28;20034;-82
2022/05/07 07:13:24;;;;;;;17.88;6.00;;;;;;;14.80;76.62;101211.75;4990255;28;20113;-79
2022/05/07 07:15:50;;;;;;;26.48;6.65;;;;;;;15.09;75.27;101229.09;4972234;28;20474;-80
2022/05/07 07:18:16;;;;;;;24.60;6.72;;;;;;;15.15;76.49;101229.28;4990911;28;20568;-83
2022/05/07 07:20:43;;;;;;;16.55;5.30;;;;;;;14.94;72.85;101200.91;4990472;28;20101;-83
2022/05/07 07:23:11;;;;;;;15.45;5.38;;;;;;;14.74;75.21;101163.91;4990676;28;20117;-81
2022/05/07 07:25:40;;;;;;;11.45;5.35;;;;;;;14.96;75.38;101187.13;4990775;28;20393;-80
2022/05/07 07:28:07;;;;;;;11.77;5.25;;;;;;;15.18;74.02;101222.47;4990611;28;20034;-79
2022/05/07 07:30:32;;;;;;;13.48;5.65;;;;;;;15.00;75.79;101186.41;4995985;28;20124;-80
2022/05/07 07:32:58;;;;;;;14.32;5.00;;;;;;;15.00;74.63;101189.00;5001249;28;20104;-81
2022/05/07 07:35:24;;;;;;;15.20;5.22;;;;;;;15.43;71.13;101204.97;4999885;28;20050;-87
2022/05/07 07:37:49;;;;;;;12.02;5.22;;;;;;;15.57;69.49;101207.97;4982408;28;20120;-80
2022/05/07 07:40:16;;;;;;;10.90;4.63;;;;;;;15.56;66.76;101161.97;5001241;28;20037;-80
2022/05/07 07:42:41;;;;;;;7.57;4.65;;;;;;;15.79;66.50;101190.38;4996521;28;20045;-81
2022/05/07 07:48:04;;;;;;;9.45;4.93;;;;;;;16.16;65.23;101197.44;5000568;28;21693;-87
2022/05/07 07:50:35;;;;;;;10.57;5.13;;;;;;;16.25;66.05;101191.59;4998675;28;20023;-88
2022/05/07 07:53:03;;;;;;;10.88;4.32;;;;;;;16.53;65.04;101200.09;4998926;28;20500;-85
2022/05/07 07:55:29;;;;;;;7.97;4.78;;;;;;;16.52;60.38;101200.91;5001882;28;20037;-83
2022/05/07 07:57:56;;;;;;;10.73;5.00;;;;;;;16.59;61.47;101197.63;5004935;28;20107;-82
2022/05/07 08:00:22;;;;;;;11.20;4.60;;;;;;;16.06;60.87;101085.16;5001631;28;20058;-81
2022/05/07 08:02:56;;;;;;;9.85;4.30;;;;;;;16.82;62.46;101192.06;4994192;28;20030;-79
2022/05/07 08:05:33;;;;;;;7.18;4.97;;;;;;;16.95;63.23;101199.34;4976067;28;20061;-85
2022/05/07 08:13:35;;;;;;;9.77;4.70;;;;;;;16.62;51.37;101184.69;4991536;28;20025;-80
2022/05/07 08:16:01;;;;;;;6.75;4.45;;;;;;;16.54;49.09;101185.34;4998135;28;20117;-80
2022/05/07 08:18:27;;;;;;;9.23;4.55;;;;;;;16.56;47.99;101187.13;5002293;28;20035;-81
2022/05/07 08:20:55;;;;;;;9.98;4.22;;;;;;;16.56;49.07;101186.25;5004477;28;20022;-82
2022/05/07 08:23:20;;;;;;;9.00;4.45;;;;;;;16.65;48.08;101166.47;4996405;28;20022;-84
2022/05/07 08:25:46;;;;;;;6.88;4.10;;;;;;;16.81;47.28;101162.50;5002678;28;20026;-81
2022/05/07 08:28:11;;;;;;;9.30;4.65;;;;;;;16.89;46.81;101153.97;5002307;28;20190;-82
2022/05/07 08:30:37;;;;;;;8.65;4.68;;;;;;;17.03;48.80;101142.13;4985304;28;20044;-82
2022/05/07 08:33:06;;;;;;;8.80;5.10;;;;;;;17.42;44.15;101187.28;5002787;28;20497;-80
2022/05/07 08:35:32;;;;;;;10.77;5.30;;;;;;;17.47;46.26;101188.28;5000114;28;20026;-76
2022/05/07 08:37:57;;;;;;;44.70;7.18;;;;;;;17.50;46.80;101195.28;5001789;28;20167;-79
2022/05/07 08:40:24;;;;;;;14.02;5.45;;;;;;;17.48;46.23;101148.25;4977267;28;20030;-79
2022/05/07 08:42:50;;;;;;;9.75;4.65;;;;;;;17.87;41.07;101185.53;5001738;28;20030;-79
2022/05/07 08:45:16;;;;;;;10.63;5.25;;;;;;;17.98;43.49;101186.66;5003217;28;20040;-83
2022/05/07 08:47:42;;;;;;;12.23;5.47;;;;;;;18.15;45.17;101186.94;5003915;28;20076;-85
2022/05/07 08:50:09;;;;;;;10.82;4.57;;;;;;;18.09;41.46;101143.31;5001874;28;20026;-81
2022/05/07 08:52:42;;;;;;;16.70;4.72;;;;;;;18.47;39.86;101178.75;5001210;28;20034;-80
2022/05/07 08:55:13;;;;;;;19.67;5.93;;;;;;;18.60;41.40;101187.66;5001396;28;20029;-81
2022/05/07 08:57:39;;;;;;;11.90;4.97;;;;;;;18.68;39.26;101180.84;4985435;28;20160;-81
2022/05/07 09:00:06;;;;;;;7.22;4.95;;;;;;;18.79;39.43;101181.00;5003528;28;20504;-82
2022/05/07 09:02:49;;;;;;;8.20;4.15;;;;;;;18.90;40.55;101168.97;4992109;28;20049;-85
2022/05/07 09:05:20;;;;;;;8.15;4.60;;;;;;;18.77;38.89;101153.94;4992979;28;20030;-82
2022/05/07 09:07:57;;;;;;;11.55;4.60;;;;;;;19.04;36.77;101176.09;4991620;28;20068;-81
2022/05/07 09:10:27;;;;;;;8.38;4.82;;;;;;;19.20;38.62;101182.44;4995185;28;20038;-80
2022/05/07 09:12:53;;;;;;;9.63;4.82;;;;;;;19.06;36.61;101143.00;4986025;28;20104;-84
2022/05/07 09:15:18;;;;;;;9.48;4.68;;;;;;;19.27;35.86;101165.09;5001592;28;20027;-82
2022/05/07 09:17:47;;;;;;;6.55;4.28;;;;;;;18.94;38.18;101169.00;4984780;28;20029;-78
2022/05/07 09:20:15;;;;;;;7.93;4.78;;;;;;;18.89;37.87;101167.19;5003521;28;20077;-80
2022/05/07 09:23:09;;;;;;;9.50;4.30;;;;;;;18.61;37.42;101159.81;5001817;28;20473;-76
2022/05/07 09:25:48;;;;;;;8.02;5.07;;;;;;;18.41;41.68;101155.13;4926114;29;20143;-82
2022/05/07 09:28:25;;;;;;;8.30;4.60;;;;;;;18.61;41.89;101159.81;4929299;29;20027;-78
2022/05/07 09:30:55;;;;;;;5.90;4.03;;;;;;;18.38;40.39;101129.81;4926757;29;20042;-80
2022/05/07 09:33:37;;;;;;;8.45;4.30;;;;;;;18.38;39.95;101157.69;4912452;29;20590;-81
2022/05/07 09:36:12;;;;;;;7.03;4.03;;;;;;;18.57;41.61;101149.28;4912096;29;20074;-78
2022/05/07 09:38:38;;;;;;;10.20;4.75;;;;;;;18.25;38.93;101138.31;4912258;29;20024;-79
2022/05/07 09:41:04;;;;;;;10.70;4.82;;;;;;;18.69;40.42;101153.81;4912230;29;20024;-80
2022/05/07 09:43:31;;;;;;;7.50;4.53;;;;;;;18.90;43.87;101157.59;4913022;29;20439;-83
2022/05/07 09:45:57;;;;;;;10.23;5.00;;;;;;;19.22;40.70;101152.78;4931092;29;20110;-77
2022/05/07 09:48:23;;;;;;;6.72;4.28;;;;;;;18.85;41.40;101105.19;4931260;29;20505;-79
2022/05/07 09:50:50;;;;;;;5.80;4.13;;;;;;;18.87;41.31;101124.41;4931228;29;20028;-77
2022/05/07 09:58:49;;;;;;;9.38;4.50;;;;;;;19.80;42.91;101137.69;4931369;29;20161;-80
2022/05/07 10:01:15;;;;;;;14.48;4.80;;;;;;;20.10;43.52;101136.25;4918279;28;20031;-79
2022/05/07 10:03:52;;;;;;;20.90;6.15;;;;;;;20.36;43.40;101126.84;4989892;28;20034;-79
2022/05/07 10:06:40;;;;;;;11.23;4.93;;;;;;;20.53;42.02;101120.84;4990940;28;20113;-80
2022/05/07 10:09:32;;;;;;;8.23;4.28;;;;;;;20.27;39.87;101120.66;4991281;28;20412;-78
2022/05/07 10:11:58;;;;;;;9.35;4.72;;;;;;;20.39;42.88;101118.13;4990996;28;20108;-80
2022/05/07 10:14:30;;;;;;;6.53;4.30;;;;;;;20.72;40.21;101127.09;4990552;28;20426;-77
2022/05/07 10:17:09;;;;;;;7.53;3.95;;;;;;;20.66;40.63;101072.81;4990520;28;20061;-77
2022/05/07 10:19:45;;;;;;;8.30;3.25;;;;;;;20.51;41.76;101123.47;4989846;28;20133;-79
2022/05/07 10:22:26;;;;;;;5.70;3.67;;;;;;;20.81;41.39;101110.53;4990852;28;20038;-80
2022/05/07 10:25:06;;;;;;;13.68;4.18;;;;;;;21.07;43.05;101105.41;4991299;28;20026;-80
2022/05/07 10:27:36;;;;;;;12.82;4.18;;;;;;;20.53;39.50;101108.59;4990929;28;20481;-78
2022/05/07 10:30:28;;;;;;;19.38;5.63;;;;;;;20.68;40.07;101096.44;4973530;28;20034;-78
2022/05/07 10:33:03;;;;;;;14.18;4.75;;;;;;;20.65;40.41;101031.72;4911463;29;20041;-81
2022/05/07 10:35:49;;;;;;;8.18;3.60;;;;;;;21.19;39.65;101069.56;4911125;29;20107;-81
2022/05/07 10:38:24;;;;;;;6.15;3.45;;;;;;;21.56;41.59;101091.56;4911366;29;20075;-80
2022/05/07 10:41:01;;;;;;;5.72;2.88;;;;;;;21.08;39.40;101091.38;4911569;29;20063;-81
2022/05/07 10:43:38;;;;;;;6.78;3.95;;;;;;;20.96;39.33;101086.09;4895614;29;20417;-81
2022/05/07 10:46:07;;;;;;;6.78;3.08;;;;;;;21.21;39.74;101089.69;4911540;29;20051;-80
2022/05/07 10:48:45;;;;;;;9.40;3.20;;;;;;;21.57;40.63;101082.81;4911300;29;20049;-78
2022/05/07 10:51:17;;;;;;;6.47;2.85;;;;;;;21.84;37.97;101073.16;4911294;29;20411;-79
2022/05/07 10:53:42;;;;;;;8.73;3.28;;;;;;;22.00;39.35;101075.81;4911085;29;20163;-77
2022/05/07 10:56:19;;;;;;;13.02;4.20;;;;;;;22.21;36.58;101081.03;4911033;29;20633;-78
2022/05/07 10:58:49;;;;;;;8.70;3.63;;;;;;;22.42;38.79;101081.91;4910744;29;20043;-79
2022/05/07 11:01:17;;;;;;;10.23;3.75;;;;;;;21.81;39.44;101060.91;4911201;29;20040;-81
2022/05/07 11:03:42;;;;;;;10.40;3.10;;;;;;;22.06;39.41;101078.44;4910717;29;20067;-81
2022/05/07 11:06:08;;;;;;;8.90;3.40;;;;;;;22.28;39.43;101058.22;4909798;29;20506;-81
2022/05/07 11:08:47;;;;;;;8.98;3.40;;;;;;;22.51;36.86;101065.22;4912676;28;20110;-81
2022/05/07 11:11:15;;;;;;;8.05;3.85;;;;;;;22.68;38.34;101058.16;4948922;28;20075;-80
2022/05/07 11:13:45;;;;;;;8.85;3.40;;;;;;;22.85;37.98;101062.47;4949210;28;21146;-79
2022/05/07 11:16:11;;;;;;;7.32;2.90;;;;;;;22.08;37.79;101030.22;4953298;28;20042;-81
2022/05/07 11:18:37;;;;;;;7.65;3.45;;;;;;;21.95;40.76;101042.47;4950241;28;20051;-81
2022/05/07 11:21:03;;;;;;;6.80;3.47;;;;;;;22.20;41.00;101066.13;4948728;28;20040;-82
2022/05/07 11:23:30;;;;;;;7.68;3.17;;;;;;;21.69;40.52;101076.66;4947988;28;20038;-80
2022/05/07 11:25:56;;;;;;;6.63;3.30;;;;;;;21.73;40.37;101036.41;4949182;28;20689;-79
2022/05/07 11:28:22;;;;;;;10.85;3.85;;;;;;;22.20;39.78;101057.38;4949124;28;20031;-81
2022/05/07 11:30:51;;;;;;;5.68;3.15;;;;;;;22.52;41.49;101048.53;4951291;28;20109;-79
2022/05/07 11:33:24;;;;;;;;;;;;;;;22.68;39.18;101058.16;4952978;28;20108;-78
2022/05/07 11:36:01;;;;;;;24.20;5.22;;;;;;;22.86;38.51;101054.53;4959165;28;20426;-81
2022/05/07 11:38:27;;;;;;;6.43;2.85;;;;;;;22.82;41.27;101017.69;4954813;28;20031;-85
2022/05/07 11:40:52;;;;;;;6.85;3.05;;;;;;;23.32;39.45;101050.81;4952736;28;20094;-78
2022/05/07 11:46:06;;;;;;;4.25;2.30;;;;;;;23.57;35.68;101042.75;4954366;28;20037;-77
2022/05/07 11:48:32;;;;;;;4.47;2.40;;;;;;;23.62;35.28;101053.25;4953825;28;20070;-80
2022/05/07 11:50:59;;;;;;;6.40;2.40;;;;;;;23.63;33.78;101037.41;4954305;28;20059;-81